Time;durP1;ratioP1;P1;durP2;ratioP2;P2;SDS_P1;SDS_P2;PMS_P1;PMS_P2;Temp;Humidity;BMP_temperature;BMP_pressure;BME280_temperature;BME280_humidity;BME280_pressure;Samples;Min_cycle;Max_cycle;Signal;HPM_P1;HPM_P2
2021/04/16 00:00:38;;;;;;;15.30;9.47;;;5.90;99.90;;;;;;4305306;33;20399;-71
2021/04/16 00:03:06;;;;;;;16.10;8.80;;;6.00;99.90;;;;;;4306707;33;20190;-71
2021/04/16 00:05:36;;;;;;;14.33;9.13;;;5.90;99.90;;;;;;4304673;33;20196;-71
2021/04/16 00:08:05;;;;;;;15.23;9.00;;;5.90;99.90;;;;;;4304828;33;20151;-71
2021/04/16 00:10:38;;;;;;;18.67;9.90;;;5.90;99.90;;;;;;4304682;33;20192;-71
2021/04/16 00:13:06;;;;;;;15.00;9.27;;;5.80;99.90;;;;;;4305447;33;20167;-71
2021/04/16 00:15:35;;;;;;;16.73;9.63;;;5.90;99.90;;;;;;4305194;33;20144;-71
2021/04/16 00:18:07;;;;;;;17.23;9.77;;;5.90;99.90;;;;;;4305086;33;20164;-71
2021/04/16 00:20:34;;;;;;;15.63;9.90;;;5.90;99.90;;;;;;4306578;33;20487;-71
2021/04/16 00:23:02;;;;;;;16.70;9.40;;;5.90;99.90;;;;;;4308086;33;20217;-71
2021/04/16 00:25:30;;;;;;;16.30;9.93;;;5.90;99.90;;;;;;4307478;33;20400;-71
2021/04/16 00:27:58;;;;;;;17.70;9.53;;;5.90;99.90;;;;;;4307366;33;20206;-71
2021/04/16 00:30:56;;;;;;;17.77;10.07;;;6.00;99.90;;;;;;4307329;33;20175;-71
2021/04/16 00:33:23;;;;;;;16.63;10.03;;;5.90;99.90;;;;;;4248925;33;20219;-71
2021/04/16 00:35:50;;;;;;;19.47;10.67;;;5.90;99.90;;;;;;4249253;33;20245;-71
2021/04/16 00:38:18;;;;;;;16.87;9.57;;;5.90;99.90;;;;;;4248164;33;20220;-71
2021/04/16 00:40:49;;;;;;;17.90;10.10;;;5.90;99.90;;;;;;4247719;33;20186;-71
2021/04/16 00:43:18;;;;;;;22.30;9.90;;;5.90;99.90;;;;;;4249099;33;20215;-71
2021/04/16 00:45:46;;;;;;;18.70;10.43;;;5.90;99.90;;;;;;4247662;33;20233;-71
2021/04/16 00:48:35;;;;;;;18.77;10.23;;;5.90;99.90;;;;;;4248412;33;20163;-71
2021/04/16 00:51:05;;;;;;;16.57;9.80;;;5.90;99.90;;;;;;4249021;33;20151;-71
2021/04/16 00:53:34;;;;;;;17.30;10.50;;;5.90;99.90;;;;;;4249209;33;20141;-71
2021/04/16 00:56:03;;;;;;;18.30;10.30;;;5.90;99.90;;;;;;4247515;33;20154;-71
2021/04/16 00:58:32;;;;;;;17.97;10.33;;;5.90;99.90;;;;;;4248092;33;20218;-71
2021/04/16 01:01:02;;;;;;;18.87;10.43;;;5.90;99.90;;;;;;4249147;33;20151;-71
2021/04/16 01:03:29;;;;;;;18.10;10.57;;;6.00;99.90;;;;;;4248257;33;20164;-71
2021/04/16 01:05:59;;;;;;;16.17;10.10;;;6.00;99.90;;;;;;4247878;33;20217;-71
2021/04/16 01:08:26;;;;;;;16.30;10.27;;;6.00;99.90;;;;;;4247833;33;20154;-71
2021/04/16 01:10:53;;;;;;;17.10;9.93;;;6.10;99.90;;;;;;4304931;33;20161;-71
2021/04/16 01:13:23;;;;;;;18.03;10.03;;;6.10;99.90;;;;;;4307301;33;20186;-71
2021/04/16 01:15:56;;;;;;;15.73;10.40;;;6.10;99.90;;;;;;4306603;33;20157;-71
2021/04/16 01:18:36;;;;;;;15.50;10.00;;;6.10;99.90;;;;;;4307206;33;20142;-71
2021/04/16 01:21:07;;;;;;;18.90;10.53;;;6.10;99.90;;;;;;4309125;33;20226;-71
2021/04/16 01:23:50;;;;;;;18.67;10.17;;;6.20;99.90;;;;;;4307226;33;20149;-71
2021/04/16 01:26:20;;;;;;;16.40;10.57;;;6.20;99.90;;;;;;4306702;33;20217;-71
2021/04/16 01:28:47;;;;;;;15.87;10.00;;;6.20;99.90;;;;;;4307148;33;20144;-71
2021/04/16 01:31:18;;;;;;;15.27;10.10;;;6.10;99.90;;;;;;4306402;33;20189;-71
2021/04/16 01:33:49;;;;;;;18.57;10.30;;;6.00;99.90;;;;;;4308644;33;20163;-71
2021/04/16 01:36:23;;;;;;;17.60;10.73;;;6.00;99.90;;;;;;4308345;33;20477;-71
2021/04/16 01:38:51;;;;;;;16.87;10.37;;;6.00;99.90;;;;;;4307450;33;20173;-72
2021/04/16 01:41:18;;;;;;;19.17;10.77;;;6.00;99.90;;;;;;4306331;33;20148;-72
2021/04/16 01:43:57;;;;;;;16.27;9.73;;;6.00;99.90;;;;;;4306557;33;20482;-71
2021/04/16 01:46:25;;;;;;;15.37;9.10;;;6.00;99.90;;;;;;4306306;33;20146;-72
2021/04/16 01:48:54;;;;;;;15.93;10.10;;;6.10;99.90;;;;;;4308204;33;20152;-72
2021/04/16 01:51:34;;;;;;;16.50;9.77;;;6.10;99.90;;;;;;4306706;33;20155;-72
2021/04/16 01:54:11;;;;;;;16.50;9.40;;;6.10;99.90;;;;;;4308186;33;20148;-72
2021/04/16 01:56:40;;;;;;;17.00;9.37;;;6.00;99.90;;;;;;4306528;33;20163;-71
2021/04/16 01:59:09;;;;;;;14.43;9.03;;;6.00;99.90;;;;;;4306693;33;20527;-72
2021/04/16 02:01:36;;;;;;;15.50;9.40;;;6.10;99.90;;;;;;4307269;33;20157;-72
2021/04/16 02:04:03;;;;;;;13.80;8.57;;;6.10;99.90;;;;;;4306588;33;20157;-71
2021/04/16 02:06:34;;;;;;;16.73;9.53;;;6.10;99.90;;;;;;4306517;33;20340;-72
2021/04/16 02:09:05;;;;;;;17.47;8.90;;;6.00;99.90;;;;;;4306580;33;20177;-71
2021/04/16 02:11:31;;;;;;;13.87;9.03;;;6.10;99.90;;;;;;4306812;33;20151;-71
2021/04/16 02:13:58;;;;;;;14.53;8.87;;;6.10;99.90;;;;;;4306400;33;20190;-71
2021/04/16 02:16:25;;;;;;;14.90;8.90;;;6.20;99.90;;;;;;4306456;33;20155;-72
2021/04/16 02:18:53;;;;;;;16.40;8.93;;;6.10;99.90;;;;;;4306702;33;20198;-71
2021/04/16 02:21:20;;;;;;;17.50;9.00;;;6.20;99.90;;;;;;4306682;33;20200;-71
2021/04/16 02:23:46;;;;;;;15.00;9.00;;;6.10;99.90;;;;;;4306973;33;20156;-72
2021/04/16 02:26:13;;;;;;;15.37;9.00;;;6.10;99.90;;;;;;4305673;33;20155;-72
2021/04/16 02:28:40;;;;;;;15.97;9.97;;;6.00;99.90;;;;;;4306053;33;20171;-72
2021/04/16 02:31:06;;;;;;;17.50;10.60;;;6.10;99.90;;;;;;4306567;33;20352;-72
2021/04/16 02:33:33;;;;;;;17.27;10.33;;;6.10;99.90;;;;;;4306740;33;20150;-72
2021/04/16 02:36:00;;;;;;;16.30;9.97;;;6.00;99.90;;;;;;4306151;33;20182;-72
2021/04/16 02:38:27;;;;;;;15.60;9.90;;;5.90;99.90;;;;;;4306570;33;20464;-71
2021/04/16 02:40:54;;;;;;;17.87;10.30;;;5.90;99.90;;;;;;4305611;33;20212;-71
2021/04/16 02:43:20;;;;;;;16.17;10.23;;;6.00;99.90;;;;;;4305422;33;20242;-72
2021/04/16 02:45:47;;;;;;;19.73;11.57;;;6.00;99.90;;;;;;4305980;33;20162;-72
2021/04/16 02:48:14;;;;;;;20.83;12.10;;;6.10;99.90;;;;;;4306021;33;20178;-71
2021/04/16 02:50:40;;;;;;;23.47;13.17;;;6.10;99.90;;;;;;4306078;33;20456;-72
2021/04/16 02:53:07;;;;;;;22.47;12.80;;;6.20;99.90;;;;;;4305455;33;20201;-72
2021/04/16 02:55:33;;;;;;;20.67;11.80;;;6.10;99.90;;;;;;4305451;33;20394;-72
2021/04/16 02:58:00;;;;;;;17.37;10.97;;;6.00;99.90;;;;;;4305945;33;20182;-72
2021/04/16 03:00:29;;;;;;;19.63;10.80;;;6.00;99.90;;;;;;4306176;33;20150;-72
2021/04/16 03:02:56;;;;;;;15.60;9.70;;;6.00;99.90;;;;;;4305720;33;20446;-72
2021/04/16 03:05:24;;;;;;;16.47;9.60;;;6.00;99.90;;;;;;4305786;33;20186;-72
2021/04/16 03:07:52;;;;;;;14.33;9.00;;;5.90;99.90;;;;;;4305846;33;20180;-72
2021/04/16 03:10:22;;;;;;;16.47;8.30;;;5.90;99.90;;;;;;4305808;33;20260;-71
2021/04/16 03:12:49;;;;;;;14.30;7.50;;;6.00;99.90;;;;;;4305109;33;20464;-72
2021/04/16 03:15:16;;;;;;;14.80;7.73;;;6.00;99.90;;;;;;4306629;33;20193;-71
2021/04/16 03:17:43;;;;;;;14.90;7.33;;;5.90;99.90;;;;;;4305468;33;20144;-71
2021/04/16 03:20:11;;;;;;;13.60;7.30;;;5.90;99.90;;;;;;4305008;33;20205;-71
2021/04/16 03:22:38;;;;;;;10.73;7.13;;;5.90;99.90;;;;;;4306451;33;20162;-71
2021/04/16 03:25:06;;;;;;;11.70;7.20;;;5.80;99.90;;;;;;4306560;33;20201;-71
2021/04/16 03:27:33;;;;;;;13.97;7.20;;;5.90;99.90;;;;;;4305062;33;20142;-71
2021/04/16 03:30:00;;;;;;;11.87;6.67;;;5.90;99.90;;;;;;4305608;33;20221;-71
2021/04/16 03:32:28;;;;;;;11.30;7.43;;;6.00;99.90;;;;;;4305517;33;20229;-71
2021/04/16 03:34:55;;;;;;;10.10;6.73;;;5.90;99.90;;;;;;4306368;33;20172;-71
2021/04/16 03:37:22;;;;;;;14.10;7.00;;;5.90;99.90;;;;;;4304898;33;20202;-71
2021/04/16 03:39:49;;;;;;;14.17;7.17;;;5.80;99.90;;;;;;4304303;33;20210;-72
2021/04/16 03:42:16;;;;;;;11.30;6.93;;;5.80;99.90;;;;;;4305654;33;20149;-71
2021/04/16 03:44:43;;;;;;;12.30;6.50;;;5.90;99.90;;;;;;4305918;33;20212;-71
2021/04/16 03:47:10;;;;;;;13.00;7.37;;;5.80;99.90;;;;;;4305049;33;20157;-71
2021/04/16 03:49:36;;;;;;;14.23;6.97;;;5.80;99.90;;;;;;4305069;33;20524;-71
2021/04/16 03:52:04;;;;;;;11.77;6.73;;;5.80;99.90;;;;;;4306058;33;20227;-71
2021/04/16 03:54:33;;;;;;;10.07;6.23;;;5.80;99.90;;;;;;4305210;33;20200;-71
2021/04/16 03:56:59;;;;;;;12.13;6.70;;;5.80;99.90;;;;;;4308295;33;20158;-71
2021/04/16 03:59:26;;;;;;;9.93;6.27;;;5.90;99.90;;;;;;4308215;33;20574;-71
2021/04/16 04:01:53;;;;;;;10.03;6.17;;;5.80;99.90;;;;;;4308398;33;20196;-71
2021/04/16 04:04:21;;;;;;;11.00;6.37;;;5.80;99.90;;;;;;4308390;33;20224;-71
2021/04/16 04:06:49;;;;;;;10.70;6.93;;;5.90;99.90;;;;;;4309382;33;20160;-71
2021/04/16 04:09:17;;;;;;;9.57;6.10;;;5.80;99.90;;;;;;4308531;33;20144;-71
2021/04/16 04:11:44;;;;;;;10.90;6.30;;;5.80;99.90;;;;;;4309436;33;20201;-71
2021/04/16 04:14:11;;;;;;;10.53;6.47;;;5.80;99.90;;;;;;4308202;33;20245;-71
2021/04/16 04:16:53;;;;;;;10.90;6.50;;;5.80;99.90;;;;;;4307905;33;20150;-71
2021/04/16 04:19:21;;;;;;;11.13;6.70;;;5.80;99.90;;;;;;4308301;33;20162;-71
2021/04/16 04:21:49;;;;;;;9.87;6.50;;;5.80;99.90;;;;;;4308139;33;20470;-71
2021/04/16 04:24:16;;;;;;;12.23;6.80;;;5.80;99.90;;;;;;4307925;33;20477;-71
2021/04/16 04:26:44;;;;;;;13.30;7.00;;;5.70;99.90;;;;;;4308014;33;20204;-71
2021/04/16 04:29:11;;;;;;;13.00;7.13;;;5.70;99.90;;;;;;4307966;33;20182;-71
2021/04/16 04:31:46;;;;;;;11.07;7.17;;;5.70;99.90;;;;;;4308453;33;20184;-71
2021/04/16 04:34:18;;;;;;;10.23;6.70;;;5.60;99.90;;;;;;4307447;33;20410;-71
2021/04/16 04:36:45;;;;;;;10.90;6.10;;;5.60;99.90;;;;;;4307972;33;20155;-72
2021/04/16 04:39:12;;;;;;;14.63;7.43;;;5.60;99.90;;;;;;4307765;33;20193;-72
2021/04/16 04:41:41;;;;;;;11.77;7.17;;;5.60;99.90;;;;;;4308160;33;20202;-72
2021/04/16 04:44:08;;;;;;;11.03;6.70;;;5.60;99.90;;;;;;4307669;33;20507;-72
2021/04/16 04:46:36;;;;;;;13.70;7.60;;;5.60;99.90;;;;;;4308037;33;20283;-72
2021/04/16 04:49:04;;;;;;;11.73;7.37;;;5.50;99.90;;;;;;4308976;33;20159;-72
2021/04/16 04:51:31;;;;;;;12.80;7.83;;;5.50;99.90;;;;;;4307105;33;20415;-72
2021/04/16 04:53:58;;;;;;;12.10;7.23;;;5.60;99.90;;;;;;4308428;33;20145;-72
2021/04/16 04:56:25;;;;;;;14.63;7.50;;;5.60;99.90;;;;;;4307386;33;20165;-71
2021/04/16 04:58:51;;;;;;;11.97;7.73;;;5.60;99.90;;;;;;4306961;33;20150;-72
2021/04/16 05:01:18;;;;;;;11.07;6.87;;;5.50;99.90;;;;;;4307678;33;20147;-72
2021/04/16 05:03:45;;;;;;;10.60;7.27;;;5.50;99.90;;;;;;4306782;33;20170;-72
2021/04/16 05:06:12;;;;;;;11.90;7.00;;;5.50;99.90;;;;;;4307258;33;20282;-72
2021/04/16 05:08:38;;;;;;;12.60;7.10;;;5.50;99.90;;;;;;4307276;33;20181;-72
2021/04/16 05:11:08;;;;;;;11.93;6.47;;;5.50;99.90;;;;;;4306752;33;20233;-72
2021/04/16 05:13:35;;;;;;;11.33;6.73;;;5.50;99.90;;;;;;4308034;33;20145;-72
2021/04/16 05:16:03;;;;;;;11.77;7.13;;;5.50;99.90;;;;;;4307237;33;20360;-72
2021/04/16 05:18:29;;;;;;;10.90;7.10;;;5.60;99.90;;;;;;4307931;33;20188;-73
2021/04/16 05:20:56;;;;;;;11.37;6.60;;;5.50;99.90;;;;;;4307235;33;20146;-73
2021/04/16 05:23:23;;;;;;;10.77;7.13;;;5.50;99.90;;;;;;4307393;33;20138;-73
2021/04/16 05:25:49;;;;;;;13.77;7.00;;;5.50;99.90;;;;;;4306394;33;20154;-72
2021/04/16 05:28:16;;;;;;;10.63;7.20;;;5.50;99.90;;;;;;4306962;33;20143;-73
2021/04/16 05:30:42;;;;;;;11.97;7.00;;;5.50;99.90;;;;;;4307647;33;20447;-73
2021/04/16 05:33:09;;;;;;;12.57;7.10;;;5.50;99.90;;;;;;4307003;33;20150;-73
2021/04/16 05:35:35;;;;;;;11.57;6.93;;;5.50;99.90;;;;;;4306957;33;20176;-73
2021/04/16 05:38:02;;;;;;;12.63;7.27;;;5.60;99.90;;;;;;4306937;33;20532;-72
2021/04/16 05:40:29;;;;;;;13.00;7.77;;;5.60;99.90;;;;;;4308288;33;20170;-72
2021/04/16 05:42:55;;;;;;;11.73;7.20;;;5.60;99.90;;;;;;4307682;33;20150;-73
2021/04/16 05:45:22;;;;;;;10.87;6.90;;;5.60;99.90;;;;;;4306934;33;20430;-72
2021/04/16 05:47:49;;;;;;;12.67;8.10;;;5.70;99.90;;;;;;4306139;33;20165;-72
2021/04/16 05:50:17;;;;;;;13.83;7.93;;;5.70;99.90;;;;;;4306262;33;20217;-72
2021/04/16 05:52:44;;;;;;;14.17;8.07;;;5.70;99.90;;;;;;4306634;33;20409;-72
2021/04/16 05:55:12;;;;;;;14.57;8.10;;;5.70;99.90;;;;;;4306686;33;20199;-72
2021/04/16 05:57:44;;;;;;;14.77;8.37;;;5.80;99.90;;;;;;4312179;33;20220;-72
2021/04/16 06:00:11;;;;;;;17.93;8.13;;;5.80;99.90;;;;;;4309283;33;20257;-72
2021/04/16 06:02:41;;;;;;;14.10;6.87;;;5.80;99.90;;;;;;4310260;33;20188;-71
2021/04/16 06:05:12;;;;;;;13.80;7.53;;;5.70;99.90;;;;;;4306330;33;20155;-71
2021/04/16 06:07:39;;;;;;;11.97;7.50;;;5.70;99.90;;;;;;4306715;33;20511;-71
2021/04/16 06:10:08;;;;;;;13.47;8.30;;;5.70;99.90;;;;;;4307132;33;20209;-71
2021/04/16 06:12:37;;;;;;;13.73;7.83;;;5.80;99.90;;;;;;4305890;33;20383;-71
2021/04/16 06:15:10;;;;;;;10.97;7.47;;;5.80;99.90;;;;;;4307036;33;20164;-71
2021/04/16 06:17:38;;;;;;;14.33;8.37;;;5.80;99.90;;;;;;4307643;33;20167;-71
2021/04/16 06:20:07;;;;;;;14.73;8.27;;;5.90;99.90;;;;;;4307541;33;20153;-71
2021/04/16 06:22:34;;;;;;;16.13;8.97;;;5.80;99.90;;;;;;4306135;33;20159;-71
2021/04/16 06:25:01;;;;;;;15.50;9.33;;;5.70;99.90;;;;;;4305553;33;20198;-72
2021/04/16 06:27:27;;;;;;;16.57;10.40;;;5.80;99.90;;;;;;4306022;33;20154;-72
2021/04/16 06:29:54;;;;;;;17.87;10.73;;;5.80;99.90;;;;;;4305806;33;20157;-71
2021/04/16 06:32:21;;;;;;;19.07;10.90;;;5.80;99.90;;;;;;4305673;33;20181;-72
2021/04/16 06:34:51;;;;;;;17.40;10.43;;;5.90;99.90;;;;;;4306790;33;20378;-72
2021/04/16 06:37:18;;;;;;;21.83;12.10;;;6.00;99.90;;;;;;4307615;33;20188;-71
2021/04/16 06:39:45;;;;;;;20.33;12.70;;;6.00;99.90;;;;;;4305953;33;20146;-72
2021/04/16 06:42:27;;;;;;;22.47;13.23;;;5.90;99.90;;;;;;4302878;33;20157;-71
2021/04/16 06:44:57;;;;;;;23.20;12.37;;;6.00;99.90;;;;;;4306410;33;20165;-71
2021/04/16 06:47:28;;;;;;;19.57;12.50;;;5.90;99.90;;;;;;4305701;33;20172;-71
2021/04/16 06:49:57;;;;;;;25.47;12.70;;;5.90;99.90;;;;;;4306516;33;20158;-71
2021/04/16 06:52:52;;;;;;;27.60;14.50;;;5.80;99.90;;;;;;4305856;33;20176;-72
2021/04/16 06:55:28;;;;;;;21.10;12.33;;;5.90;99.90;;;;;;4307077;33;20203;-72
2021/04/16 06:57:57;;;;;;;21.83;12.90;;;5.80;99.90;;;;;;4307138;33;20485;-72
2021/04/16 07:00:26;;;;;;;20.63;12.60;;;5.80;99.90;;;;;;4305219;33;20191;-72
2021/04/16 07:03:05;;;;;;;22.10;13.23;;;5.80;99.90;;;;;;4303105;33;20179;-72
2021/04/16 07:05:39;;;;;;;25.07;13.10;;;5.80;99.90;;;;;;4301639;33;20194;-72
2021/04/16 07:08:07;;;;;;;24.17;13.33;;;5.90;99.90;;;;;;4305887;33;20201;-72
2021/04/16 07:10:38;;;;;;;20.77;12.57;;;6.00;99.90;;;;;;4305550;33;20159;-71
2021/04/16 07:13:06;;;;;;;20.63;11.83;;;5.90;99.90;;;;;;4305084;33;20229;-72
2021/04/16 07:15:43;;;;;;;18.83;11.47;;;5.90;99.90;;;;;;4303794;33;21150;-72
2021/04/16 07:18:17;;;;;;;16.43;10.13;;;5.80;99.90;;;;;;4303692;33;20174;-72
2021/04/16 07:20:44;;;;;;;15.90;9.30;;;5.80;99.90;;;;;;4304037;33;20441;-72
2021/04/16 07:23:10;;;;;;;17.80;9.87;;;5.80;99.90;;;;;;4302165;33;20229;-72
2021/04/16 07:25:47;;;;;;;15.03;9.23;;;5.80;99.90;;;;;;4302771;33;20174;-71
2021/04/16 07:28:44;;;;;;;16.27;9.10;;;5.80;99.90;;;;;;4302050;33;20207;-71
2021/04/16 07:31:29;;;;;;;19.07;9.53;;;5.80;99.90;;;;;;4303512;33;20269;-72
2021/04/16 07:33:57;;;;;;;18.00;9.67;;;5.90;99.90;;;;;;4302943;33;20180;-72
2021/04/16 07:36:37;;;;;;;18.57;10.40;;;5.90;99.90;;;;;;4306181;33;20200;-72
2021/04/16 07:39:13;;;;;;;18.03;10.90;;;5.90;99.90;;;;;;4307316;33;20181;-72
2021/04/16 07:41:42;;;;;;;44.60;22.43;;;5.90;99.90;;;;;;4304905;33;20148;-72
2021/04/16 07:44:34;;;;;;;21.40;12.00;;;6.00;99.90;;;;;;4305489;33;20206;-72
2021/04/16 07:47:13;;;;;;;22.37;12.40;;;6.00;99.90;;;;;;4305239;33;20171;-71
2021/04/16 07:50:12;;;;;;;23.97;12.50;;;6.00;99.90;;;;;;4305306;33;20185;-72
2021/04/16 07:52:46;;;;;;;27.77;14.20;;;5.90;99.90;;;;;;4306380;33;20208;-72
2021/04/16 07:55:26;;;;;;;25.37;14.40;;;5.80;99.90;;;;;;4306828;33;20175;-72
2021/04/16 07:57:53;;;;;;;27.13;14.67;;;5.70;99.90;;;;;;4306232;33;20226;-72
2021/04/16 08:00:22;;;;;;;31.60;15.73;;;5.80;99.90;;;;;;4306023;33;20138;-72
2021/04/16 08:03:10;;;;;;;31.63;15.80;;;5.80;99.90;;;;;;4304859;33;20162;-72
2021/04/16 08:05:50;;;;;;;33.27;16.10;;;5.80;99.90;;;;;;4305344;33;20210;-72
2021/04/16 08:08:17;;;;;;;24.50;14.53;;;5.80;99.90;;;;;;4305050;33;20155;-72
2021/04/16 08:10:46;;;;;;;24.27;13.00;;;5.90;99.90;;;;;;4305002;33;20493;-72
2021/04/16 08:13:19;;;;;;;24.40;12.57;;;5.90;99.90;;;;;;4306453;33;20160;-72
2021/04/16 08:15:46;;;;;;;22.80;11.83;;;5.80;99.90;;;;;;4306781;33;20149;-72
2021/04/16 08:18:22;;;;;;;27.20;13.30;;;5.70;99.90;;;;;;4305191;33;20146;-72
2021/04/16 08:21:07;;;;;;;24.33;12.90;;;5.70;99.90;;;;;;4305266;33;20531;-72
2021/04/16 08:23:52;;;;;;;23.00;12.27;;;5.70;99.90;;;;;;4305088;33;20214;-72
2021/04/16 08:26:23;;;;;;;20.47;11.47;;;5.80;99.90;;;;;;4305022;33;20250;-72
2021/04/16 08:28:52;;;;;;;27.53;11.97;;;5.80;99.90;;;;;;4306373;33;20173;-72
2021/04/16 08:31:32;;;;;;;37.93;18.47;;;5.80;99.90;;;;;;4304913;33;20155;-72
2021/04/16 08:34:07;;;;;;;31.17;14.53;;;5.90;99.90;;;;;;4304316;33;20212;-70
2021/04/16 08:36:39;;;;;;;29.80;14.43;;;5.90;99.90;;;;;;4306938;33;20170;-71
2021/04/16 08:39:17;;;;;;;25.50;13.77;;;6.00;99.90;;;;;;4304779;33;20187;-72
2021/04/16 08:42:07;;;;;;;28.87;13.53;;;6.00;99.90;;;;;;4307998;33;20243;-72
2021/04/16 08:44:40;;;;;;;21.53;12.23;;;6.00;99.90;;;;;;4307563;33;20227;-72
2021/04/16 08:47:19;;;;;;;23.17;10.97;;;6.10;99.90;;;;;;4308579;33;20204;-72
2021/04/16 08:49:46;;;;;;;22.17;11.17;;;6.20;99.90;;;;;;4307774;33;20390;-72
2021/04/16 08:52:20;;;;;;;19.23;11.53;;;6.20;99.90;;;;;;4308901;33;20165;-72
2021/04/16 08:54:49;;;;;;;21.13;12.17;;;6.30;99.90;;;;;;4306984;33;20156;-72
2021/04/16 08:57:25;;;;;;;27.07;13.83;;;6.30;99.90;;;;;;4307393;33;20168;-72
2021/04/16 09:00:15;;;;;;;22.37;11.90;;;6.40;99.90;;;;;;4307485;33;20177;-72
2021/04/16 09:02:44;;;;;;;19.83;11.27;;;6.40;99.90;;;;;;4307970;33;20172;-72
2021/04/16 09:05:18;;;;;;;22.50;11.67;;;6.40;99.90;;;;;;4307410;33;20195;-72
2021/04/16 09:08:08;;;;;;;24.10;12.07;;;6.40;99.90;;;;;;4308171;33;20405;-72
2021/04/16 09:10:34;;;;;;;17.43;10.60;;;6.40;99.90;;;;;;4306804;33;20165;-73
2021/04/16 09:13:04;;;;;;;16.47;10.40;;;6.40;99.90;;;;;;4307226;33;20177;-72
2021/04/16 09:15:33;;;;;;;18.33;10.67;;;6.50;99.90;;;;;;4307775;33;20190;-72
2021/04/16 09:18:00;;;;;;;16.90;9.17;;;6.50;99.90;;;;;;4306879;33;20167;-73
2021/04/16 09:20:32;;;;;;;17.60;10.60;;;6.40;99.90;;;;;;4306513;33;20217;-73
2021/04/16 09:23:02;;;;;;;17.13;9.37;;;6.40;99.90;;;;;;4307414;33;20167;-73
2021/04/16 09:25:31;;;;;;;13.33;8.60;;;6.60;99.90;;;;;;4307677;33;20178;-72
2021/04/16 09:28:37;;;;;;;12.63;8.87;;;6.60;99.90;;;;;;4306868;33;20169;-72
2021/04/16 09:31:26;;;;;;;14.07;8.10;;;6.60;99.90;;;;;;4299792;33;20179;-72
2021/04/16 09:34:14;;;;;;;13.03;7.87;;;6.60;99.90;;;;;;4307266;33;20210;-72
2021/04/16 09:36:48;;;;;;;12.93;7.73;;;6.60;99.90;;;;;;4307907;33;20452;-72
2021/04/16 09:39:37;;;;;;;13.63;8.20;;;6.80;99.90;;;;;;4307090;33;20210;-72
2021/04/16 09:42:41;;;;;;;12.37;8.03;;;7.00;99.90;;;;;;4308264;33;20172;-72
2021/04/16 09:45:34;;;;;;;14.53;8.37;;;7.00;99.90;;;;;;4306802;33;20467;-72
2021/04/16 09:48:19;;;;;;;13.03;8.00;;;7.10;99.90;;;;;;4306181;33;20188;-72
2021/04/16 09:50:51;;;;;;;17.20;9.70;;;7.30;99.90;;;;;;4307151;33;20429;-72
2021/04/16 09:53:32;;;;;;;17.13;9.53;;;7.20;99.90;;;;;;4305794;33;20150;-71
2021/04/16 09:56:00;;;;;;;14.57;8.50;;;7.30;99.90;;;;;;4306456;33;20475;-72
2021/04/16 09:58:30;;;;;;;14.03;7.83;;;7.30;99.90;;;;;;4306811;33;20133;-71
2021/04/16 10:00:56;;;;;;;14.63;8.50;;;7.20;99.90;;;;;;4306489;33;20177;-71
2021/04/16 10:03:32;;;;;;;14.37;8.57;;;7.20;99.90;;;;;;4306521;33;20546;-71
2021/04/16 10:06:28;;;;;;;18.00;10.40;;;7.30;99.90;;;;;;4307617;33;20176;-71
2021/04/16 10:09:03;;;;;;;15.43;8.90;;;7.40;99.90;;;;;;4306682;33;20142;-71
2021/04/16 10:11:32;;;;;;;14.23;8.00;;;7.40;99.90;;;;;;4306515;33;20150;-71
2021/04/16 10:14:15;;;;;;;15.17;6.87;;;7.60;99.90;;;;;;4306301;33;20157;-71
2021/04/16 10:16:43;;;;;;;11.70;6.80;;;7.40;99.90;;;;;;4306336;33;20207;-71
2021/04/16 10:19:19;;;;;;;12.37;6.47;;;7.40;99.90;;;;;;4307587;33;20147;-72
2021/04/16 10:21:46;;;;;;;13.43;6.70;;;7.50;99.90;;;;;;4307015;33;20164;-72
2021/04/16 10:25:42;;;;;;;16.47;7.30;;;7.60;99.90;;;;;;4307411;33;20152;-71
2021/04/16 12:39:41;;;;;;;10.47;6.13;;;6.70;99.90;;;;;;4306972;33;20200;-73
2021/04/16 12:42:09;;;;;;;9.73;6.20;;;6.80;99.90;;;;;;4307538;33;20198;-73
2021/04/16 12:44:48;;;;;;;8.83;6.20;;;6.70;99.90;;;;;;4307246;33;20174;-73
2021/04/16 12:47:28;;;;;;;11.53;6.73;;;6.60;99.90;;;;;;4308610;33;20435;-73
2021/04/16 12:49:55;;;;;;;9.80;6.60;;;6.60;99.90;;;;;;4308628;33;20142;-73
2021/04/16 12:52:22;;;;;;;10.37;6.60;;;6.60;99.90;;;;;;4307885;33;20197;-73
2021/04/16 12:54:51;;;;;;;11.90;7.53;;;6.70;99.90;;;;;;4307480;33;20152;-73
2021/04/16 12:57:41;;;;;;;10.03;7.23;;;6.80;99.90;;;;;;4306667;33;20465;-73
2021/04/16 13:00:24;;;;;;;12.47;7.33;;;6.90;99.90;;;;;;4307741;33;20211;-73
2021/04/16 13:02:57;;;;;;;9.97;6.67;;;6.90;99.90;;;;;;4307275;33;20378;-73
2021/04/16 13:05:26;;;;;;;13.00;7.37;;;6.90;99.90;;;;;;4307475;33;20492;-73
2021/04/16 13:07:53;;;;;;;11.33;6.70;;;7.00;99.90;;;;;;4307147;33;20156;-73
2021/04/16 13:10:20;;;;;;;12.70;7.53;;;7.10;99.90;;;;;;4307113;33;20190;-74
2021/04/16 13:12:47;;;;;;;15.47;9.20;;;7.00;99.90;;;;;;4306675;33;20168;-73
2021/04/16 13:15:15;;;;;;;14.67;9.07;;;7.00;99.90;;;;;;4306827;33;20153;-74
2021/04/16 13:17:55;;;;;;;13.90;9.40;;;6.90;99.90;;;;;;4305644;33;20214;-74
2021/04/16 13:20:24;;;;;;;15.60;9.30;;;7.00;99.90;;;;;;4308411;33;20164;-74
2021/04/16 13:22:52;;;;;;;20.97;10.20;;;6.90;99.90;;;;;;4306344;33;20200;-74
2021/04/16 13:25:25;;;;;;;14.27;9.70;;;7.00;99.90;;;;;;4306829;33;20483;-74
2021/04/16 13:27:53;;;;;;;16.13;10.27;;;7.00;99.90;;;;;;4306716;33;20149;-73
2021/04/16 13:30:24;;;;;;;16.27;10.90;;;7.00;99.90;;;;;;4306490;33;20152;-73
2021/04/16 13:32:54;;;;;;;20.27;12.13;;;6.90;99.90;;;;;;4306684;33;20184;-73
2021/04/16 13:35:34;;;;;;;18.83;12.00;;;7.00;99.90;;;;;;4307009;33;20236;-73
2021/04/16 13:38:04;;;;;;;21.17;11.77;;;7.10;99.90;;;;;;4306764;33;20172;-73
2021/04/16 13:40:32;;;;;;;18.93;12.03;;;7.10;99.90;;;;;;4306503;33;20575;-73
2021/04/16 13:43:00;;;;;;;18.07;10.83;;;7.10;99.90;;;;;;4306203;33;20482;-73
2021/04/16 13:45:27;;;;;;;15.80;10.97;;;7.00;99.90;;;;;;4307448;33;20445;-73
2021/04/16 13:47:54;;;;;;;17.50;11.23;;;7.00;99.90;;;;;;4306787;33;20448;-73
2021/04/16 13:50:21;;;;;;;15.07;10.53;;;7.10;99.90;;;;;;4307345;33;20186;-74
2021/04/16 13:52:49;;;;;;;19.63;11.17;;;7.10;99.90;;;;;;4306524;33;20153;-74
2021/04/16 13:55:16;;;;;;;14.90;10.20;;;7.20;99.90;;;;;;4306005;33;20175;-74
2021/04/16 13:57:44;;;;;;;18.07;10.37;;;7.20;99.90;;;;;;4306439;33;20171;-74
2021/04/16 14:00:15;;;;;;;10.87;8.20;;;7.10;99.90;;;;;;4306325;33;20625;-74
2021/04/16 14:02:46;;;;;;;11.53;8.43;;;7.00;99.90;;;;;;4307914;33;20219;-73
2021/04/16 14:05:24;;;;;;;9.93;7.43;;;6.90;99.90;;;;;;4306215;33;20147;-73
2021/04/16 14:07:52;;;;;;;7.93;5.53;;;6.80;99.90;;;;;;4308410;33;20186;-73
2021/04/16 14:10:24;;;;;;;6.37;4.53;;;6.70;99.90;;;;;;4305853;33;20204;-73
2021/04/16 14:12:52;;;;;;;6.30;4.07;;;6.60;99.90;;;;;;4305333;33;20320;-73
2021/04/16 14:15:21;;;;;;;5.10;3.53;;;6.50;99.90;;;;;;4306964;33;20156;-72
2021/04/16 14:17:52;;;;;;;3.10;2.70;;;6.40;99.90;;;;;;4305716;33;20171;-72
2021/04/16 14:20:30;;;;;;;3.70;2.50;;;6.10;99.90;;;;;;4307111;33;20176;-72
2021/04/16 14:22:59;;;;;;;4.90;2.90;;;6.00;99.90;;;;;;4305755;33;20424;-72
2021/04/16 14:25:36;;;;;;;3.90;2.60;;;5.90;99.90;;;;;;4306970;33;20155;-72
2021/04/16 14:28:09;;;;;;;2.97;2.30;;;5.80;99.90;;;;;;4306760;33;20480;-72
2021/04/16 14:30:38;;;;;;;2.13;1.53;;;5.80;99.90;;;;;;4306738;33;20141;-72
2021/04/16 14:33:11;;;;;;;3.83;1.93;;;5.80;99.90;;;;;;4305315;33;20142;-72
2021/04/16 14:35:38;;;;;;;2.70;1.80;;;5.80;99.90;;;;;;4306651;33;20196;-72
2021/04/16 14:38:05;;;;;;;2.53;1.90;;;5.70;99.90;;;;;;4306635;33;20169;-72
2021/04/16 14:40:32;;;;;;;2.57;2.00;;;5.70;99.90;;;;;;4305076;33;20147;-72
2021/04/16 14:42:59;;;;;;;7.53;4.10;;;5.70;99.90;;;;;;4306231;33;20194;-72
2021/04/16 14:45:29;;;;;;;3.70;2.43;;;5.80;99.90;;;;;;4305125;33;20223;-72
2021/04/16 14:47:56;;;;;;;3.13;2.10;;;5.80;99.90;;;;;;4305763;33;20535;-72
2021/04/16 14:50:27;;;;;;;2.70;2.00;;;5.80;99.90;;;;;;4305173;33;20163;-72
2021/04/16 14:53:00;;;;;;;3.07;2.07;;;5.90;99.90;;;;;;4304981;33;20417;-72
2021/04/16 14:55:34;;;;;;;3.17;2.20;;;5.90;99.90;;;;;;4306759;33;20364;-72
2021/04/16 14:58:02;;;;;;;3.47;1.90;;;5.90;99.90;;;;;;4305406;33;20200;-73
2021/04/16 15:00:33;;;;;;;5.10;2.53;;;6.00;99.90;;;;;;4304229;33;20164;-73
2021/04/16 15:02:59;;;;;;;2.70;2.03;;;6.00;99.90;;;;;;4306499;33;20146;-73
2021/04/16 15:05:26;;;;;;;3.00;2.00;;;5.90;99.90;;;;;;4304912;33;22343;-73
2021/04/16 15:08:02;;;;;;;3.07;2.13;;;5.90;99.90;;;;;;4304663;33;20147;-73
2021/04/16 15:10:34;;;;;;;3.67;2.10;;;5.90;99.90;;;;;;4306447;33;20546;-73
2021/04/16 15:13:01;;;;;;;2.67;2.23;;;5.90;99.90;;;;;;4305630;33;20189;-73
2021/04/16 15:15:34;;;;;;;3.43;2.63;;;5.90;99.90;;;;;;4306349;33;20154;-73
2021/04/16 15:18:03;;;;;;;3.37;2.60;;;5.90;99.90;;;;;;4305702;33;20243;-73